Gure Amuitz — EASO — position and weather

sailwx.info

Track history (hours):
 
Tides and Currents Weather Stations Pressure Air Temp Water Temp Dewpoint Dewpoint Depression Visibility Wind Speed Wind Dir Waves Ship Positions

Gure Amuitz

Last reported at 2016-Jul-26 00:28 UTC. Time now 2016-Jul-30 01:55 UTC.
Position N 43°23' W 001°47'.

Length 28 m.

Type: Fishing. MMSI: 224010590.

Date/timePositionNaut miles runAvg speedWind from/ knotsBaromVisibWave heightAir tempDewpointWater temp
2016-Jul-26 00:28N 43°23' W 001°47'0 0.0
2016-Jul-25 23:29N 43°23' W 001°47'0 0.0
2016-Jul-25 22:33N 43°23' W 001°47'0 0.0
2016-Jul-25 21:33N 43°23' W 001°47'0 0.0
2016-Jul-25 20:32N 43°23' W 001°47'0 0.0
2016-Jul-25 19:33N 43°23' W 001°47'0 0.0
2016-Jul-25 18:33N 43°23' W 001°47'0 0.0
2016-Jul-25 17:28N 43°23' W 001°47'0 0.0
2016-Jul-25 16:29N 43°23' W 001°47'0 0.0
2016-Jul-25 15:32N 43°23' W 001°47'0 0.0
2016-Jul-25 14:26N 43°23' W 001°47'0 0.0
2016-Jul-25 08:24N 43°23' W 001°47'0 0.0
2016-Jul-25 07:33N 43°23' W 001°47'0 0.0
2016-Jul-25 06:32N 43°23' W 001°47'0 0.0
2016-Jul-25 05:32N 43°23' W 001°47'0 0.0
2016-Jul-24 22:32N 43°23' W 001°47'  
2016-Jul-19 17:10N 44°09' W 003°58'72 8.3
2016-Jul-19 08:28N 43°48' W 002°23'9 9.2
2016-Jul-19 07:33N 43°42' W 002°14'10 9.6
2016-Jul-19 06:33N 43°35' W 002°05'17 7.7
2016-Jul-19 04:18N 43°23' W 001°47'0 0.1
2016-Jul-19 03:12N 43°23' W 001°48'0 0.1
2016-Jul-19 02:28N 43°23' W 001°47'33 1.4
2016-Jul-18 03:24N 43°48' W 002°17'8 9.8
2016-Jul-18 02:33N 43°42' W 002°09'21 9.8
2016-Jul-18 00:22N 43°26' W 001°49'3 3.9
2016-Jul-17 23:33N 43°23' W 001°47'0 0.0
2016-Jul-17 22:22N 43°23' W 001°47'0 0.2
2016-Jul-17 20:33N 43°23' W 001°47'0 0.4
2016-Jul-17 19:33N 43°23' W 001°47'0 0.0
2016-Jul-17 18:33N 43°23' W 001°47'0 0.0
2016-Jul-17 17:33N 43°23' W 001°47'0 0.0
2016-Jul-17 16:33N 43°23' W 001°47'0 0.0
2016-Jul-17 15:33N 43°23' W 001°47'0 0.0
2016-Jul-17 14:33N 43°23' W 001°47'0 0.0
2016-Jul-17 13:33N 43°23' W 001°47'0 0.0
2016-Jul-17 12:33N 43°23' W 001°47'0 0.0
2016-Jul-17 11:33N 43°23' W 001°47'0 0.0
2016-Jul-17 10:33N 43°23' W 001°47'0 0.0
2016-Jul-17 09:33N 43°23' W 001°47'0 0.0
2016-Jul-17 07:21N 43°23' W 001°47'0 0.0
2016-Jul-17 06:30N 43°23' W 001°47'0 0.0
2016-Jul-17 04:33N 43°23' W 001°47'0 0.0
2016-Jul-17 03:33N 43°23' W 001°47'0 0.0
2016-Jul-17 02:33N 43°23' W 001°47'0 0.0
2016-Jul-17 01:33N 43°23' W 001°47'0 0.0
2016-Jul-17 00:33N 43°23' W 001°47'0 0.0
2016-Jul-16 23:33N 43°23' W 001°47'0 0.0
2016-Jul-16 22:33N 43°23' W 001°47'0 0.0
2016-Jul-16 21:33N 43°23' W 001°47'0 0.0
2016-Jul-16 20:32N 43°23' W 001°47'0 0.0
2016-Jul-16 19:33N 43°23' W 001°47'0 0.0
2016-Jul-16 18:30N 43°23' W 001°47'0 0.0
2016-Jul-16 17:30N 43°23' W 001°47'0 0.0
2016-Jul-16 16:33N 43°23' W 001°47'0 0.0
2016-Jul-16 15:33N 43°23' W 001°47'0 0.0
2016-Jul-16 14:32N 43°23' W 001°47'0 0.0
2016-Jul-16 13:33N 43°23' W 001°47'0 0.0
2016-Jul-16 12:31N 43°23' W 001°47'0 0.0
2016-Jul-16 11:33N 43°23' W 001°47'0 0.0
2016-Jul-16 10:33N 43°23' W 001°47'0 0.0
2016-Jul-16 09:28N 43°23' W 001°47'2 0.7
2016-Jul-16 06:34N 43°25' W 001°47'15 7.4
2016-Jul-16 04:33N 43°36' W 002°02'1 1.2
2016-Jul-16 03:33N 43°37' W 002°02'5 5.0
2016-Jul-16 02:33N 43°42' W 002°05'7 6.7
2016-Jul-16 01:34N 43°47' W 002°11'  
Track history (hours):
 
Tides and Currents Weather Stations Pressure Air Temp Water Temp Dewpoint Dewpoint Depression Visibility Wind Speed Wind Dir Waves Ship Positions

Gure Amuitz

Last reported at 2016-Jul-26 00:28 UTC. Time now 2016-Jul-30 01:55 UTC.
Position N 43°23' W 001°47'.

Length 28 m.

Type: Fishing. MMSI: 224010590.

Date/timePositionNaut miles runAvg speedWind from/ knotsBaromVisibWave heightAir tempDewpointWater temp
2016-Jul-26 00:28N 43°23' W 001°47'0 0.0
2016-Jul-25 23:29N 43°23' W 001°47'0 0.0
2016-Jul-25 22:33N 43°23' W 001°47'0 0.0
2016-Jul-25 21:33N 43°23' W 001°47'0 0.0
2016-Jul-25 20:32N 43°23' W 001°47'0 0.0
2016-Jul-25 19:33N 43°23' W 001°47'0 0.0
2016-Jul-25 18:33N 43°23' W 001°47'0 0.0
2016-Jul-25 17:28N 43°23' W 001°47'0 0.0
2016-Jul-25 16:29N 43°23' W 001°47'0 0.0
2016-Jul-25 15:32N 43°23' W 001°47'0 0.0
2016-Jul-25 14:26N 43°23' W 001°47'0 0.0
2016-Jul-25 08:24N 43°23' W 001°47'0 0.0
2016-Jul-25 07:33N 43°23' W 001°47'0 0.0
2016-Jul-25 06:32N 43°23' W 001°47'0 0.0
2016-Jul-25 05:32N 43°23' W 001°47'0 0.0
2016-Jul-24 22:32N 43°23' W 001°47'  
2016-Jul-19 17:10N 44°09' W 003°58'72 8.3
2016-Jul-19 08:28N 43°48' W 002°23'9 9.2
2016-Jul-19 07:33N 43°42' W 002°14'10 9.6
2016-Jul-19 06:33N 43°35' W 002°05'17 7.7
2016-Jul-19 04:18N 43°23' W 001°47'0 0.1
2016-Jul-19 03:12N 43°23' W 001°48'0 0.1
2016-Jul-19 02:28N 43°23' W 001°47'33 1.4
2016-Jul-18 03:24N 43°48' W 002°17'8 9.8
2016-Jul-18 02:33N 43°42' W 002°09'21 9.8
2016-Jul-18 00:22N 43°26' W 001°49'3 3.9
2016-Jul-17 23:33N 43°23' W 001°47'0 0.0
2016-Jul-17 22:22N 43°23' W 001°47'0 0.2
2016-Jul-17 20:33N 43°23' W 001°47'0 0.4
2016-Jul-17 19:33N 43°23' W 001°47'0 0.0
2016-Jul-17 18:33N 43°23' W 001°47'0 0.0
2016-Jul-17 17:33N 43°23' W 001°47'0 0.0
2016-Jul-17 16:33N 43°23' W 001°47'0 0.0
2016-Jul-17 15:33N 43°23' W 001°47'0 0.0
2016-Jul-17 14:33N 43°23' W 001°47'0 0.0
2016-Jul-17 13:33N 43°23' W 001°47'0 0.0
2016-Jul-17 12:33N 43°23' W 001°47'0 0.0
2016-Jul-17 11:33N 43°23' W 001°47'0 0.0
2016-Jul-17 10:33N 43°23' W 001°47'0 0.0
2016-Jul-17 09:33N 43°23' W 001°47'0 0.0
2016-Jul-17 07:21N 43°23' W 001°47'0 0.0
2016-Jul-17 06:30N 43°23' W 001°47'0 0.0
2016-Jul-17 04:33N 43°23' W 001°47'0 0.0
2016-Jul-17 03:33N 43°23' W 001°47'0 0.0
2016-Jul-17 02:33N 43°23' W 001°47'0 0.0
2016-Jul-17 01:33N 43°23' W 001°47'0 0.0
2016-Jul-17 00:33N 43°23' W 001°47'0 0.0
2016-Jul-16 23:33N 43°23' W 001°47'0 0.0
2016-Jul-16 22:33N 43°23' W 001°47'0 0.0
2016-Jul-16 21:33N 43°23' W 001°47'0 0.0
2016-Jul-16 20:32N 43°23' W 001°47'0 0.0
2016-Jul-16 19:33N 43°23' W 001°47'0 0.0
2016-Jul-16 18:30N 43°23' W 001°47'0 0.0
2016-Jul-16 17:30N 43°23' W 001°47'0 0.0
2016-Jul-16 16:33N 43°23' W 001°47'0 0.0
2016-Jul-16 15:33N 43°23' W 001°47'0 0.0
2016-Jul-16 14:32N 43°23' W 001°47'0 0.0
2016-Jul-16 13:33N 43°23' W 001°47'0 0.0
2016-Jul-16 12:31N 43°23' W 001°47'0 0.0
2016-Jul-16 11:33N 43°23' W 001°47'0 0.0
2016-Jul-16 10:33N 43°23' W 001°47'0 0.0
2016-Jul-16 09:28N 43°23' W 001°47'2 0.7
2016-Jul-16 06:34N 43°25' W 001°47'15 7.4
2016-Jul-16 04:33N 43°36' W 002°02'1 1.2
2016-Jul-16 03:33N 43°37' W 002°02'5 5.0
2016-Jul-16 02:33N 43°42' W 002°05'7 6.7
2016-Jul-16 01:34N 43°47' W 002°11'  

Dump ship's entire track history